Powered by GoogleTranslate

Occupational Safety and Health Administration OSHA

Alert: Due to routine maintenance on the OSHA website, some pages may be temporarily unavailable.
To report an emergency, file a complaint with OSHA or ask a safety and health question, call 1-800-321-6742 (OSHA).

Accident Search Results

Description, Abstract, KeywordSICNAICSDate RangeOfficeInsp Nr
Keyword: paintAllAll02/24/2011 to 02/24/2021AllAll

By Date

Results 101 - 120 of 144
Result Page: 1 2 3 4 5 6 7 8
  # Summary Nr Event Date Report ID Fat SIC Event Description
101 202657805 09/03/2013 0950643 X 1721 Employee Falls From Ladder, Later Dies
102 52006.015 08/17/2013 0216000 X Employee Falls From Ladder And Is Killed
103 202588729 08/15/2013 0950614   1721 Painter Is Injured When Struck By Pressurized Paint
104 50146.015 08/07/2013 0420600 X Employee Falls From Scaffold And Is Killed
105 49588.015 08/01/2013 0418800 X Employee Is Struck By Metal Gate And Is Killed
106 202654521 06/03/2013 0950612   139 Employee Suffer Fractures In Fall From Ladder
107 46068.015 05/27/2013 0936300 X Employee Falls From Elevation While Painting Rafters
108 43624.015 04/21/2013 0626300 X Employee Is Killed When Exposed To Painting Vapors
109 202657854 04/11/2013 0950643   1721 Employee Falls From Roof, Fractures Ribs
110 202523767 04/10/2013 0950624   1721 Employee Misses Step On Ladder, Falls, Fractures Hand
111 200626786 01/25/2013 0454711 X 7532 Employee Is Killed When Struck By Vehicle
112 202614798 01/24/2013 1054191 X 1799 Employee Using Stripper Containing Methylene Chloride, Dies
113 202081915 01/24/2013 0453730   3412 Employee Fractures Arm When Caught Between Conveyors
114 202654182 11/10/2012 0950612   1721 Employee Fractures Chest In Fall From A Ladder
115 31655.015 10/14/2012 0419400 X Employee Falls From Scaffold While Painting And Is Killed
116 202369435 10/07/2012 1055340 X 1721 Employee'S Body Has Not Been Found After Falling From Bridge
117 201078607 09/17/2012 0950632   6531 Employee Burned From Exploding Paint Aerosol Can
118 202471819 09/17/2012 0950643 X 7699 Painter Killled In 40-Foot Fall From Wind Machine
119 26935.015 08/28/2012 0729300 X Employee Dies From Acute Solvent Toxicity During Work Assign
120 202544664 08/08/2012 0950641   4212 Employee Suffers Heat Stroke While Working At A Body Shop

Thank You for Visiting Our Website

You are exiting the Department of Labor's Web server.

The Department of Labor does not endorse, takes no responsibility for, and exercises no control over the linked organization or its views, or contents, nor does it vouch for the accuracy or accessibility of the information contained on the destination server. The Department of Labor also cannot authorize the use of copyrighted materials contained in linked Web sites. Users must request such authorization from the sponsor of the linked Web site. Thank you for visiting our site. Please click the button below to continue.

Close